createdAt,value
2019-04-01T00:01:08.016Z,7.60
2019-04-01T00:03:35.554Z,7.33
2019-04-01T00:06:05.354Z,7.03
2019-04-01T00:08:32.911Z,7.10
2019-04-01T00:11:00.734Z,5.80
2019-04-01T00:13:31.355Z,10.67
2019-04-01T00:15:58.891Z,6.07
2019-04-01T00:18:27.697Z,9.23
2019-04-01T00:20:56.657Z,8.60
2019-04-01T00:23:25.268Z,5.70
2019-04-01T00:25:53.180Z,12.30
2019-04-01T00:28:20.777Z,8.20
2019-04-01T00:30:48.641Z,8.03
2019-04-01T00:33:16.369Z,6.90
2019-04-01T00:35:45.358Z,6.30
2019-04-01T00:38:12.816Z,7.77
2019-04-01T00:40:40.440Z,7.77
2019-04-01T00:43:28.083Z,6.23
2019-04-01T00:45:59.148Z,8.03
2019-04-01T00:48:27.157Z,6.83
2019-04-01T00:50:57.451Z,8.03
2019-04-01T00:53:25.035Z,8.03
2019-04-01T00:55:52.678Z,8.00
2019-04-01T00:58:21.354Z,7.03
2019-04-01T01:00:49.443Z,12.27
2019-04-01T01:03:16.983Z,7.93
2019-04-01T01:05:44.547Z,10.30
2019-04-01T01:08:12.094Z,10.00
2019-04-01T01:10:39.636Z,9.40
2019-04-01T01:13:08.828Z,8.57
2019-04-01T01:15:36.314Z,10.50
2019-04-01T01:18:04.124Z,7.80
2019-04-01T01:20:31.706Z,7.70
2019-04-01T01:22:59.204Z,9.07
2019-04-01T01:25:26.726Z,9.17
2019-04-01T01:27:54.264Z,10.27
2019-04-01T01:30:21.806Z,5.53
2019-04-01T01:32:50.727Z,5.20
2019-04-01T01:35:18.491Z,9.83
2019-04-01T01:37:50.222Z,7.97
2019-04-01T01:40:17.777Z,6.80
2019-04-01T01:42:45.284Z,9.20
2019-04-01T01:45:13.029Z,7.17
2019-04-01T01:47:40.581Z,6.80
2019-04-01T01:50:08.095Z,8.27
2019-04-01T01:52:35.631Z,6.97
2019-04-01T01:55:03.322Z,10.63
2019-04-01T01:57:32.053Z,7.20
2019-04-01T01:59:59.663Z,7.13
2019-04-01T02:02:27.230Z,8.03
2019-04-01T02:04:54.760Z,8.13
2019-04-01T02:07:22.285Z,7.27
2019-04-01T02:09:50.282Z,8.20
2019-04-01T02:12:17.936Z,7.03
2019-04-01T02:14:45.513Z,10.33
2019-04-01T02:17:13.021Z,6.10
2019-04-01T02:19:40.581Z,11.73
2019-04-01T02:22:08.162Z,10.13
2019-04-01T02:24:35.703Z,6.83
2019-04-01T02:27:04.785Z,6.43
2019-04-01T02:29:32.315Z,12.10
2019-04-01T02:31:59.787Z,8.87
2019-04-01T02:34:27.343Z,8.50
2019-04-01T02:36:54.873Z,6.37
2019-04-01T02:39:25.473Z,5.53
2019-04-01T02:41:53.001Z,7.93
2019-04-01T02:44:20.551Z,8.60
2019-04-01T02:46:48.095Z,8.33
2019-04-01T02:49:15.649Z,9.10
2019-04-01T02:51:44.096Z,5.37
2019-04-01T02:54:11.654Z,7.27
2019-04-01T02:56:39.277Z,5.90
2019-04-01T02:59:12.315Z,11.07
2019-04-01T03:01:39.916Z,10.17
2019-04-01T03:04:08.007Z,11.60
2019-04-01T03:06:35.546Z,9.87
2019-04-01T03:09:05.209Z,9.70
2019-04-01T03:11:34.966Z,10.87
2019-04-01T03:14:02.723Z,10.20
2019-04-01T03:16:30.529Z,10.63
2019-04-01T03:18:58.195Z,6.60
2019-04-01T03:21:25.837Z,4.57
2019-04-01T03:23:53.382Z,10.07
2019-04-01T03:26:22.385Z,7.63
2019-04-01T03:28:49.980Z,7.37
2019-04-01T03:31:17.544Z,8.67
2019-04-01T03:33:45.542Z,7.37
2019-04-01T03:36:13.552Z,4.70
2019-04-01T03:38:41.247Z,5.57
2019-04-01T03:41:14.477Z,9.43
2019-04-01T03:43:44.059Z,11.17
2019-04-01T03:46:11.678Z,5.80
2019-04-01T03:48:39.308Z,6.30
2019-04-01T03:51:06.831Z,7.53
2019-04-01T03:53:34.351Z,10.07
2019-04-01T03:56:04.466Z,8.13
2019-04-01T03:58:32.245Z,10.13
2019-04-01T04:01:03.110Z,9.80
2019-04-01T04:03:40.407Z,9.13
2019-04-01T04:06:08.015Z,7.47
2019-04-01T04:08:36.998Z,9.83
2019-04-01T04:11:04.607Z,8.43
2019-04-01T04:13:32.131Z,10.60
2019-04-01T04:15:59.666Z,7.90
2019-04-01T04:18:29.271Z,8.37
2019-04-01T04:20:56.849Z,9.87
2019-04-01T04:23:24.398Z,9.83
2019-04-01T04:25:51.941Z,6.47
2019-04-01T04:28:19.495Z,5.37
2019-04-01T04:30:47.089Z,9.17
2019-04-01T04:33:14.639Z,7.57
2019-04-01T04:35:42.140Z,7.53
2019-04-01T04:38:09.690Z,7.20
2019-04-01T04:40:40.889Z,8.47
2019-04-01T04:43:07.374Z,6.57
2019-04-01T04:45:34.894Z,8.13
2019-04-01T04:48:05.765Z,6.47
2019-04-01T04:50:33.332Z,6.93
2019-04-01T04:53:01.100Z,10.03
2019-04-01T04:55:28.622Z,7.90
2019-04-01T04:57:56.210Z,5.43
2019-04-01T05:00:24.159Z,6.93
2019-04-01T05:02:54.636Z,6.40
2019-04-01T05:05:22.317Z,6.73
2019-04-01T05:07:49.923Z,5.87
2019-04-01T05:10:17.655Z,11.37
2019-04-01T05:12:45.247Z,5.67
2019-04-01T05:15:12.814Z,6.83
2019-04-01T05:17:42.470Z,6.37
2019-04-01T05:20:10.204Z,4.47
2019-04-01T05:22:39.058Z,5.83
2019-04-01T05:25:06.672Z,8.60
2019-04-01T05:27:36.413Z,7.47
2019-04-01T05:30:07.063Z,7.93
2019-04-01T05:32:35.818Z,5.63
2019-04-01T05:35:04.402Z,9.33
2019-04-01T05:37:32.198Z,5.33
2019-04-01T05:39:59.882Z,6.37
2019-04-01T05:42:28.296Z,7.17
2019-04-01T05:44:55.870Z,7.07
2019-04-01T05:47:29.555Z,10.20
2019-04-01T05:49:57.058Z,8.07
2019-04-01T05:52:24.867Z,5.80
2019-04-01T05:54:52.389Z,10.77
2019-04-01T05:57:20.026Z,6.73
2019-04-01T05:59:47.673Z,7.13
2019-04-01T06:02:15.167Z,10.87
2019-04-01T06:04:42.962Z,9.73
2019-04-01T06:07:10.490Z,9.70
2019-04-01T06:09:38.787Z,9.27
2019-04-01T06:12:06.473Z,7.23
2019-04-01T06:14:34.684Z,7.43
2019-04-01T06:17:02.251Z,8.87
2019-04-01T06:19:29.793Z,6.10
2019-04-01T06:21:57.487Z,5.97
2019-04-01T06:24:25.127Z,7.33
2019-04-01T06:26:52.843Z,7.00
2019-04-01T06:29:20.510Z,5.77
2019-04-01T06:31:48.341Z,6.47
2019-04-01T06:34:16.065Z,6.07
2019-04-01T06:36:43.851Z,7.77
2019-04-01T06:39:11.527Z,8.50
2019-04-01T06:41:39.173Z,7.77
2019-04-01T06:44:07.845Z,8.43
2019-04-01T06:46:35.454Z,7.17
2019-04-01T06:49:05.175Z,5.63
2019-04-01T06:51:32.847Z,6.60
2019-04-01T06:54:00.447Z,8.73
2019-04-01T06:56:29.263Z,7.80
2019-04-01T06:58:56.879Z,6.70
2019-04-01T07:01:24.440Z,9.07
2019-04-01T07:03:52.035Z,6.47
2019-04-01T07:06:19.641Z,9.80
2019-04-01T07:08:47.450Z,5.50
2019-04-01T07:11:14.972Z,10.40
2019-04-01T07:13:43.463Z,9.57
2019-04-01T07:16:15.649Z,5.97
2019-04-01T07:18:42.121Z,7.13
2019-04-01T07:21:09.627Z,6.27
2019-04-01T07:23:37.276Z,7.80
2019-04-01T07:26:04.782Z,11.43
2019-04-01T07:28:35.590Z,9.10
2019-04-01T07:31:03.276Z,6.57
2019-04-01T07:33:31.095Z,8.27
2019-04-01T07:35:59.214Z,8.87
2019-04-01T07:38:29.697Z,12.60
2019-04-01T07:40:59.189Z,8.90
2019-04-01T07:43:28.310Z,10.17
2019-04-01T07:45:55.886Z,9.43
2019-04-01T07:48:24.558Z,7.20
2019-04-01T07:50:52.193Z,12.90
2019-04-01T07:53:20.023Z,9.57
2019-04-01T07:55:47.577Z,6.60
2019-04-01T07:58:15.174Z,7.73
2019-04-01T08:00:42.807Z,7.93
2019-04-01T08:03:10.350Z,10.43
2019-04-01T08:05:38.197Z,9.93
2019-04-01T08:08:05.765Z,9.53
2019-04-01T08:10:33.789Z,8.27
2019-04-01T08:13:02.066Z,10.37
2019-04-01T08:15:29.634Z,10.77
2019-04-01T08:17:58.794Z,8.50
2019-04-01T08:20:26.329Z,8.27
2019-04-01T08:22:54.143Z,11.43
2019-04-01T08:25:21.733Z,10.23
2019-04-01T08:27:53.548Z,8.07
2019-04-01T08:30:21.414Z,8.20
2019-04-01T08:32:48.940Z,10.97
2019-04-01T08:35:17.756Z,10.23
2019-04-01T08:37:45.335Z,11.97
2019-04-01T08:40:13.353Z,8.87
2019-04-01T08:42:40.941Z,8.97
2019-04-01T08:45:10.271Z,11.43
2019-04-01T08:47:38.781Z,8.90
2019-04-01T08:50:07.228Z,9.30
2019-04-01T08:52:35.180Z,7.40
2019-04-01T08:55:03.148Z,7.40
2019-04-01T08:57:35.829Z,9.40
2019-04-01T09:00:07.806Z,9.23
2019-04-01T09:02:35.477Z,6.53
2019-04-01T09:05:03.263Z,9.50
2019-04-01T09:07:30.832Z,9.50
2019-04-01T09:09:58.888Z,8.93
2019-04-01T09:12:26.922Z,11.93
2019-04-01T09:14:54.995Z,9.23
2019-04-01T09:17:22.730Z,10.27
2019-04-01T09:19:50.505Z,8.17
2019-04-01T09:22:18.105Z,7.90
2019-04-01T09:24:45.754Z,9.13
2019-04-01T09:27:13.927Z,10.17
2019-04-01T09:29:41.514Z,7.77
2019-04-01T09:32:09.110Z,11.87
2019-04-01T09:34:36.768Z,10.53
2019-04-01T09:37:04.397Z,10.93
2019-04-01T09:39:31.951Z,12.43
2019-04-01T09:41:59.892Z,12.57
2019-04-01T09:44:36.575Z,13.63
2019-04-01T09:46:56.789Z,10.70
2019-04-01T09:49:25.765Z,9.40
2019-04-01T09:51:53.274Z,8.40
2019-04-01T09:54:20.880Z,11.07
2019-04-01T09:56:48.466Z,9.83
2019-04-01T09:59:16.030Z,13.57
2019-04-01T10:01:43.808Z,10.97
2019-04-01T10:04:11.479Z,12.20
2019-04-01T10:06:39.003Z,12.83
2019-04-01T10:09:07.670Z,11.57
2019-04-01T10:11:35.583Z,9.37
2019-04-01T10:14:03.291Z,12.43
2019-04-01T10:16:30.837Z,11.17
2019-04-01T10:18:58.365Z,10.07
2019-04-01T10:21:25.923Z,12.20
2019-04-01T10:23:53.491Z,16.20
2019-04-01T10:26:21.029Z,10.97
2019-04-01T10:28:48.575Z,11.60
2019-04-01T10:31:16.612Z,14.90
2019-04-01T10:33:44.191Z,12.27
2019-04-01T10:36:11.755Z,11.40
2019-04-01T10:38:39.329Z,10.83
2019-04-01T10:41:06.932Z,13.33
2019-04-01T10:43:34.547Z,12.07
2019-04-01T10:46:02.119Z,13.30
2019-04-01T10:48:29.916Z,11.80
2019-04-01T10:50:57.552Z,12.50
2019-04-01T10:53:25.325Z,14.10
2019-04-01T10:55:53.025Z,14.23
2019-04-01T10:58:21.629Z,12.97
2019-04-01T11:00:49.553Z,9.97
2019-04-01T11:03:17.310Z,9.70
2019-04-01T11:05:44.892Z,11.67
2019-04-01T11:08:32.077Z,10.50
2019-04-01T11:10:59.735Z,11.03
2019-04-01T11:13:27.524Z,11.57
2019-04-01T11:15:55.104Z,10.20
2019-04-01T11:18:25.085Z,12.53
2019-04-01T11:20:56.561Z,13.60
2019-04-01T11:23:22.869Z,11.87
2019-04-01T11:25:51.205Z,12.97
2019-04-01T11:28:26.194Z,12.87
2019-04-01T11:30:53.953Z,10.37
2019-04-01T11:33:21.518Z,12.73
2019-04-01T11:35:49.253Z,12.90
2019-04-01T11:38:18.931Z,13.50
2019-04-01T11:40:46.677Z,13.13
2019-04-01T11:43:14.860Z,14.80
2019-04-01T11:45:42.539Z,15.37
2019-04-01T11:48:15.800Z,13.30
2019-04-01T11:50:43.404Z,12.07
2019-04-01T11:53:13.463Z,12.23
2019-04-01T11:55:41.432Z,11.37
2019-04-01T11:58:15.766Z,13.47
2019-04-01T12:00:43.495Z,12.27
2019-04-01T12:03:11.139Z,11.97
2019-04-01T12:05:38.710Z,11.67
2019-04-01T12:08:16.891Z,13.03
2019-04-01T12:10:44.462Z,12.53
2019-04-01T12:13:12.078Z,13.67
2019-04-01T12:15:41.117Z,13.87
2019-04-01T12:18:08.670Z,13.40
2019-04-01T12:20:38.309Z,11.87
2019-04-01T12:23:07.290Z,12.67
2019-04-01T12:25:34.875Z,15.13
2019-04-01T12:28:02.533Z,15.43
2019-04-01T12:30:30.204Z,15.10
2019-04-01T12:32:58.510Z,13.63
2019-04-01T12:35:26.130Z,11.90
2019-04-01T12:38:14.191Z,15.00
2019-04-01T12:40:41.744Z,19.37
2019-04-01T12:43:09.992Z,12.17
2019-04-01T12:45:37.990Z,13.27
2019-04-01T12:48:17.899Z,14.53
2019-04-01T12:50:45.565Z,13.70
2019-04-01T12:53:16.998Z,12.97
2019-04-01T12:55:46.516Z,15.20
2019-04-01T12:58:17.553Z,12.50
2019-04-01T13:00:43.529Z,14.27
2019-04-01T13:03:11.119Z,10.97
2019-04-01T13:05:38.728Z,14.03
2019-04-01T13:08:07.326Z,13.30
2019-04-01T13:10:35.273Z,14.63
2019-04-01T13:13:02.980Z,13.00
2019-04-01T13:15:30.716Z,14.23
2019-04-01T13:17:58.292Z,15.57
2019-04-01T13:20:37.158Z,14.70
2019-04-01T13:22:55.241Z,13.90
2019-04-01T13:25:22.788Z,14.53
2019-04-01T13:27:50.334Z,14.27
2019-04-01T13:30:18.103Z,13.27
2019-04-01T13:32:45.672Z,13.63
2019-04-01T13:35:13.249Z,13.77
2019-04-01T13:37:43.034Z,15.17
2019-04-01T13:40:11.132Z,14.00
2019-04-01T13:42:38.746Z,16.43
2019-04-01T13:45:06.385Z,16.00
2019-04-01T13:47:34.015Z,14.30
2019-04-01T13:50:03.463Z,15.07
2019-04-01T13:52:32.834Z,17.83
2019-04-01T13:55:00.879Z,15.37
2019-04-01T13:57:35.861Z,15.27
2019-04-01T14:00:04.519Z,16.87
2019-04-01T14:02:32.396Z,14.60
2019-04-01T14:05:01.450Z,12.53
2019-04-01T14:07:29.472Z,13.77
2019-04-01T14:09:57.042Z,15.63
2019-04-01T14:12:24.591Z,13.27
2019-04-01T14:14:52.309Z,15.07
2019-04-01T14:17:21.001Z,13.23
2019-04-01T14:19:48.650Z,13.83
2019-04-01T14:22:16.760Z,13.97
2019-04-01T14:24:45.258Z,13.93
2019-04-01T14:27:16.785Z,14.93
2019-04-01T14:29:46.278Z,13.73
2019-04-01T14:32:14.031Z,12.93
2019-04-01T14:34:50.104Z,15.77
2019-04-01T14:37:25.061Z,15.73
2019-04-01T14:39:46.875Z,14.27
2019-04-01T14:42:14.525Z,15.30
2019-04-01T14:44:44.016Z,14.50
2019-04-01T14:47:13.717Z,13.53
2019-04-01T14:49:42.968Z,17.90
2019-04-01T14:52:11.331Z,12.97
2019-04-01T14:54:39.709Z,14.37
2019-04-01T14:57:07.862Z,17.03
2019-04-01T14:59:38.820Z,15.03
2019-04-01T15:02:07.261Z,14.10
2019-04-01T15:04:36.311Z,12.77
2019-04-01T15:07:04.957Z,12.90
2019-04-01T15:09:32.567Z,15.70
2019-04-01T15:12:00.579Z,15.37
2019-04-01T15:14:31.083Z,14.57
2019-04-01T15:17:13.749Z,12.43
2019-04-01T15:19:48.418Z,17.90
2019-04-01T15:22:15.319Z,18.00
2019-04-01T15:24:42.921Z,12.93
2019-04-01T15:27:18.145Z,17.47
2019-04-01T15:29:45.901Z,13.73
2019-04-01T15:32:14.843Z,15.63
2019-04-01T15:34:42.415Z,14.07
2019-04-01T15:37:15.641Z,13.83
2019-04-01T15:39:46.959Z,18.67
2019-04-01T15:42:14.153Z,13.93
2019-04-01T15:44:42.126Z,14.20
2019-04-01T15:47:20.759Z,14.03
2019-04-01T15:49:48.396Z,15.33
2019-04-01T15:52:16.058Z,14.73
2019-04-01T15:54:43.746Z,14.43
2019-04-01T15:57:24.753Z,14.30
2019-04-01T16:00:13.294Z,16.13
2019-04-01T16:02:54.801Z,14.53
2019-04-01T16:05:22.681Z,13.67
2019-04-01T16:07:50.333Z,17.63
2019-04-01T16:10:21.117Z,14.27
2019-04-01T16:12:50.544Z,14.07
2019-04-01T16:15:18.106Z,15.90
2019-04-01T16:17:48.626Z,15.90
2019-04-01T16:20:19.415Z,13.43
2019-04-01T16:22:47.020Z,15.10
2019-04-01T16:25:14.624Z,14.20
2019-04-01T16:27:43.031Z,15.77
2019-04-01T16:30:10.764Z,15.27
2019-04-01T16:32:38.736Z,17.03
2019-04-01T16:35:07.944Z,15.90
2019-04-01T16:37:35.576Z,16.03
2019-04-01T16:40:05.934Z,16.00
2019-04-01T16:42:33.922Z,15.07
2019-04-01T16:45:06.783Z,16.37
2019-04-01T16:47:34.360Z,14.03
2019-04-01T16:50:01.935Z,16.20
2019-04-01T16:52:29.811Z,16.43
2019-04-01T16:54:59.336Z,17.00
2019-04-01T16:57:30.476Z,14.23
2019-04-01T16:59:58.048Z,15.53
2019-04-01T17:02:25.710Z,16.27
2019-04-01T17:04:53.394Z,15.07
2019-04-01T17:07:21.082Z,14.47
2019-04-01T17:09:48.690Z,15.20
2019-04-01T17:12:16.334Z,17.13
2019-04-01T17:14:43.933Z,15.67
2019-04-01T17:17:28.488Z,17.07
2019-04-01T17:19:56.232Z,17.77
2019-04-01T17:22:24.331Z,13.53
2019-04-01T17:24:51.938Z,15.70
2019-04-01T17:27:19.700Z,12.93
2019-04-01T17:29:47.404Z,14.90
2019-04-01T17:32:16.034Z,13.83
2019-04-01T17:34:44.819Z,24.30
2019-04-01T17:37:15.889Z,23.10
2019-04-01T17:39:44.639Z,17.27
2019-04-01T17:42:14.078Z,21.23
2019-04-01T17:44:42.410Z,70.70
2019-04-01T17:47:10.316Z,25.60
2019-04-01T17:49:38.047Z,22.47
2019-04-01T17:52:05.752Z,16.50
2019-04-01T17:54:33.330Z,17.50
2019-04-01T17:57:01.037Z,20.70
2019-04-01T17:59:28.786Z,61.90
2019-04-01T18:01:57.108Z,17.60
2019-04-01T18:04:24.924Z,18.83
2019-04-01T18:06:52.620Z,18.43
2019-04-01T18:09:20.215Z,17.13
2019-04-01T18:11:47.890Z,18.23
2019-04-01T18:14:15.511Z,15.27
2019-04-01T18:16:43.434Z,18.10
2019-04-01T18:19:17.498Z,19.00
2019-04-01T18:21:45.163Z,18.90
2019-04-01T18:24:13.102Z,16.33
2019-04-01T18:26:40.669Z,15.77
2019-04-01T18:29:14.738Z,15.47
2019-04-01T18:31:42.358Z,15.80
2019-04-01T18:34:09.972Z,15.40
2019-04-01T18:36:37.543Z,15.53
2019-04-01T18:39:07.508Z,16.53
2019-04-01T18:41:35.114Z,15.70
2019-04-01T18:44:02.763Z,15.50
2019-04-01T18:46:32.543Z,17.63
2019-04-01T18:49:00.256Z,18.07
2019-04-01T18:51:27.932Z,17.87
2019-04-01T18:53:55.622Z,16.97
2019-04-01T18:56:23.284Z,16.70
2019-04-01T18:58:53.920Z,19.37
2019-04-01T19:01:22.052Z,18.60
2019-04-01T19:03:49.514Z,17.50
2019-04-01T19:06:20.686Z,18.97
2019-04-01T19:08:48.284Z,17.23
2019-04-01T19:11:15.928Z,16.50
2019-04-01T19:13:46.041Z,14.63
2019-04-01T19:16:16.574Z,19.47
2019-04-01T19:18:57.069Z,18.10
2019-04-01T19:21:25.861Z,18.77
2019-04-01T19:23:55.398Z,17.50
2019-04-01T19:26:23.420Z,19.67
2019-04-01T19:28:52.137Z,16.37
2019-04-01T19:31:19.699Z,17.13
2019-04-01T19:33:47.532Z,18.80
2019-04-01T19:36:15.145Z,20.67
2019-04-01T19:38:52.133Z,17.23
2019-04-01T19:41:20.620Z,17.77
2019-04-01T19:43:52.933Z,17.33
2019-04-01T19:46:20.614Z,20.43
2019-04-01T19:48:48.462Z,18.20
2019-04-01T19:51:17.443Z,19.97
2019-04-01T19:53:45.119Z,18.70
2019-04-01T19:56:12.693Z,18.03
2019-04-01T19:58:40.439Z,18.40
2019-04-01T20:01:12.039Z,18.20
2019-04-01T20:03:39.489Z,21.67
2019-04-01T20:06:09.052Z,17.07
2019-04-01T20:08:46.986Z,21.33
2019-04-01T20:11:17.650Z,20.07
2019-04-01T20:13:45.374Z,19.80
2019-04-01T20:16:13.053Z,20.97
2019-04-01T20:18:45.445Z,19.33
2019-04-01T20:21:12.942Z,18.00
2019-04-01T20:23:40.726Z,18.53
2019-04-01T20:26:08.427Z,18.97
2019-04-01T20:28:37.581Z,21.23
2019-04-01T20:31:06.303Z,16.97
2019-04-01T20:33:34.022Z,21.10
2019-04-01T20:36:01.607Z,19.03
2019-04-01T20:38:29.307Z,20.10
2019-04-01T20:40:56.881Z,19.10
2019-04-01T20:43:24.500Z,19.03
2019-04-01T20:45:52.099Z,18.70
2019-04-01T20:48:19.665Z,17.73
2019-04-01T20:50:47.575Z,20.10
2019-04-01T20:53:15.158Z,20.73
2019-04-01T20:55:48.277Z,17.23
2019-04-01T20:58:13.274Z,16.20
2019-04-01T21:00:41.779Z,18.93
2019-04-01T21:03:09.375Z,20.90
2019-04-01T21:05:37.590Z,19.20
2019-04-01T21:08:05.194Z,16.53
2019-04-01T21:10:32.874Z,21.33
2019-04-01T21:13:00.879Z,18.30
2019-04-01T21:15:30.675Z,17.60
2019-04-01T21:17:58.253Z,17.60
2019-04-01T21:20:25.907Z,23.03
2019-04-01T21:22:54.074Z,20.37
2019-04-01T21:25:21.651Z,18.93
2019-04-01T21:27:49.207Z,20.37
2019-04-01T21:30:17.227Z,20.03
2019-04-01T21:32:45.319Z,16.47
2019-04-01T21:35:13.474Z,21.47
2019-04-01T21:37:41.026Z,20.53
2019-04-01T21:40:08.941Z,19.73
2019-04-01T21:42:36.617Z,23.80
2019-04-01T21:45:05.443Z,19.97
2019-04-01T21:47:32.982Z,20.03
2019-04-01T21:50:00.569Z,20.50
2019-04-01T21:52:28.206Z,20.53
2019-04-01T21:54:56.860Z,19.93
2019-04-01T21:57:24.768Z,17.43
2019-04-01T21:59:52.347Z,22.43
2019-04-01T22:02:19.933Z,20.37
2019-04-01T22:04:47.603Z,18.67
2019-04-01T22:07:20.559Z,19.87
2019-04-01T22:09:48.142Z,21.10
2019-04-01T22:12:15.730Z,21.23
2019-04-01T22:14:43.355Z,20.63
2019-04-01T22:17:10.961Z,18.30
2019-04-01T22:19:38.894Z,18.70
2019-04-01T22:22:06.436Z,20.93
2019-04-01T22:24:34.022Z,21.23
2019-04-01T22:27:04.998Z,22.07
2019-04-01T22:29:32.605Z,21.70
2019-04-01T22:32:00.177Z,19.53
2019-04-01T22:34:28.717Z,19.37
2019-04-01T22:36:56.314Z,18.53
2019-04-01T22:39:27.354Z,19.40
2019-04-01T22:42:12.583Z,18.93
2019-04-01T22:44:40.392Z,20.33
2019-04-01T22:47:10.022Z,19.17
2019-04-01T22:49:37.571Z,20.57
2019-04-01T22:52:06.263Z,18.73
2019-04-01T22:54:34.042Z,20.97
2019-04-01T22:57:01.622Z,20.67
2019-04-01T22:59:29.166Z,20.20
2019-04-01T23:01:59.369Z,21.73
2019-04-01T23:04:26.073Z,19.13
2019-04-01T23:06:53.916Z,21.53
2019-04-01T23:09:21.457Z,20.77
2019-04-01T23:11:49.062Z,20.93
2019-04-01T23:14:17.330Z,20.10
2019-04-01T23:16:45.213Z,22.20
2019-04-01T23:19:12.780Z,20.23
2019-04-01T23:21:40.356Z,21.17
2019-04-01T23:24:07.962Z,22.43
2019-04-01T23:26:35.510Z,19.40
2019-04-01T23:29:05.240Z,20.33
2019-04-01T23:31:33.150Z,21.23
2019-04-01T23:34:00.720Z,19.57
2019-04-01T23:36:28.183Z,22.17
2019-04-01T23:38:55.681Z,24.20
2019-04-01T23:41:24.091Z,24.87
2019-04-01T23:43:51.648Z,20.87
2019-04-01T23:46:19.512Z,21.37
2019-04-01T23:48:50.242Z,21.00
2019-04-01T23:51:17.802Z,22.37
2019-04-01T23:53:45.353Z,21.83
2019-04-01T23:56:12.924Z,23.17
2019-04-01T23:58:41.187Z,20.67
